Portada
METAR-TAF:

METAR-TAF

Aeroports :

Horta, Açores, Portugal

latitud: 38-31N, longitud: 028-43W, altitud: 40 m

Observació

L'informe es va fer fa 6 hores i 10 minuts, a les 20:30 UTC
Vent 6 kt del Nord/Nord-Est, variant entre Nord/Nord-Oest i Est
Temperatura 20°C
Humitat 73%
Pressió 1026 hPa
Visibilitat 10 km o més
Núvols disperses a una alçada de 1200 ft
Núvols disperses a una alçada de 3000 ft

METAR: LPHR 262030Z 03006KT 340V100 9999 SCT012 SCT030 20/15 Q1026

Hora: 02:40 (02:40 UTC)

Pronòstic

L'informe es va fer fa 12 hores i 40 minuts, a les 14:00 UTC
Pronòstic vàlid del 26 a les 15 UTC al 26 a les 24 UTC
Vent 10 kt del Oest
Visibilitat 10 km o més
Núvols disperses a una alçada de 1800 ft
Cel ennuvolat a una alçada de 3500 ft
Evolucionant progressivament
l' 26 a les 18 UTC al 26 a les 21 UTC
Vent 5 kt amb direcció variable

TAF: LPHR 261400Z 2615/2624 27010KT 9999 SCT018 BKN035 BECMG 2618/2621 VRB05KT

Observacions i pronòstics meteorològics de més de 4000 aeroports (METAR i TAF).

Les estacions disponibles són els punts grocs i vermells al mapa.

Posi el ratolí al punt desitjat per veure el nom de l'estació.

Feu clic per veure les observacions i els pronòstics meteorològics.

Per canviar el mapa: feu clic els botons verds amb una creu de color negre per apropar; al botó verd amb un guió per allunyar la imatge; o en les fletxes verdes per a mapes adjacents.


METAR-TAF: